createdAt,value
2023-09-17T00:02:25.225Z,24.02
2023-09-17T00:07:28.654Z,24.01
2023-09-17T00:12:31.624Z,24.00
2023-09-17T00:17:35.871Z,23.99
2023-09-17T00:22:40.091Z,24.00
2023-09-17T00:27:44.432Z,23.97
2023-09-17T00:32:48.810Z,23.96
2023-09-17T00:37:52.588Z,23.95
2023-09-17T00:42:56.123Z,23.93
2023-09-17T00:48:02.777Z,23.91
2023-09-17T00:53:06.992Z,23.90
2023-09-17T00:58:10.040Z,23.88
2023-09-17T01:03:16.699Z,23.89
2023-09-17T01:08:20.282Z,23.89
2023-09-17T01:13:23.414Z,23.87
2023-09-17T01:18:28.831Z,23.84
2023-09-17T01:23:38.021Z,23.86
2023-09-17T01:28:42.314Z,23.85
2023-09-17T01:33:45.315Z,23.83
2023-09-17T01:38:52.328Z,23.84
2023-09-17T01:43:57.406Z,23.83
2023-09-17T01:49:00.675Z,23.81
2023-09-17T01:54:03.940Z,23.80
2023-09-17T01:59:09.262Z,23.78
2023-09-17T02:04:12.188Z,23.77
2023-09-17T02:09:15.014Z,23.77
2023-09-17T02:14:19.175Z,23.75
2023-09-17T02:19:22.105Z,23.73
2023-09-17T02:24:25.308Z,23.73
2023-09-17T02:29:30.714Z,23.72
2023-09-17T02:34:33.770Z,23.75
2023-09-17T02:39:42.585Z,23.71
2023-09-17T02:44:47.234Z,23.68
2023-09-17T02:49:50.403Z,23.69
2023-09-17T02:54:53.493Z,23.68
2023-09-17T02:59:58.808Z,23.66
2023-09-17T03:05:01.863Z,23.66
2023-09-17T03:10:11.941Z,23.66
2023-09-17T03:15:16.676Z,23.63
2023-09-17T03:20:23.685Z,23.66
2023-09-17T03:25:26.719Z,23.62
2023-09-17T03:30:31.115Z,23.62
2023-09-17T03:35:34.739Z,23.61
2023-09-17T03:40:37.697Z,23.59
2023-09-17T03:45:42.353Z,23.60
2023-09-17T03:50:45.236Z,23.58
2023-09-17T03:55:48.271Z,23.60
2023-09-17T04:00:52.474Z,23.57
2023-09-17T04:05:55.419Z,23.57
2023-09-17T04:10:58.335Z,23.57
2023-09-17T04:16:02.644Z,23.57
2023-09-17T04:21:05.587Z,23.56
2023-09-17T04:26:08.453Z,23.55
2023-09-17T04:31:14.655Z,23.59
2023-09-17T04:36:17.879Z,23.54
2023-09-17T04:41:20.746Z,23.51
2023-09-17T04:46:25.032Z,23.52
2023-09-17T04:51:28.400Z,23.50
2023-09-17T04:56:31.342Z,23.47
2023-09-17T05:01:35.565Z,23.47
2023-09-17T05:06:39.068Z,23.47
2023-09-17T05:11:42.006Z,23.46
2023-09-17T05:16:46.345Z,23.46
2023-09-17T05:21:50.695Z,23.45
2023-09-17T05:26:53.551Z,23.45
2023-09-17T05:31:57.875Z,23.44
2023-09-17T05:37:00.850Z,23.42
2023-09-17T05:42:03.823Z,23.41
2023-09-17T05:47:08.433Z,23.39
2023-09-17T05:52:11.406Z,23.40
2023-09-17T05:57:15.430Z,23.37
2023-09-17T06:02:20.861Z,23.37
2023-09-17T06:07:24.691Z,23.38
2023-09-17T06:12:29.708Z,23.37
2023-09-17T06:17:34.117Z,23.37
2023-09-17T06:22:37.175Z,23.36
2023-09-17T06:27:40.116Z,23.36
2023-09-17T06:32:44.374Z,23.34
2023-09-17T06:37:47.322Z,23.34
2023-09-17T06:42:50.791Z,23.32
2023-09-17T06:47:55.034Z,23.35
2023-09-17T06:52:58.006Z,23.33
2023-09-17T06:58:00.968Z,23.34
2023-09-17T07:03:05.720Z,23.31
2023-09-17T07:08:09.643Z,23.32
2023-09-17T07:13:15.473Z,23.34
2023-09-17T07:18:21.300Z,23.34
2023-09-17T07:23:24.415Z,23.35
2023-09-17T07:28:30.714Z,23.35
2023-09-17T07:33:36.758Z,23.33
2023-09-17T07:38:39.682Z,23.36
2023-09-17T07:43:42.890Z,23.37
2023-09-17T07:48:48.621Z,23.35
2023-09-17T07:53:52.685Z,23.39
2023-09-17T07:58:57.806Z,23.36
2023-09-17T08:04:03.489Z,23.38
2023-09-17T08:09:07.438Z,23.38
2023-09-17T08:14:10.984Z,23.40
2023-09-17T08:19:15.256Z,23.40
2023-09-17T08:24:21.372Z,23.41
2023-09-17T08:29:24.669Z,23.43
2023-09-17T08:34:30.162Z,23.42
2023-09-17T08:39:33.547Z,23.43
2023-09-17T08:44:38.917Z,23.47
2023-09-17T08:49:43.671Z,23.44
2023-09-17T08:54:47.201Z,23.46
2023-09-17T08:59:54.387Z,23.48
2023-09-17T09:04:59.002Z,23.49
2023-09-17T09:10:03.470Z,23.53
2023-09-17T09:15:08.229Z,23.52
2023-09-17T09:20:15.899Z,23.53
2023-09-17T09:25:19.732Z,23.57
2023-09-17T09:30:23.050Z,23.58
2023-09-17T09:35:27.448Z,23.60
2023-09-17T09:40:32.091Z,23.58
2023-09-17T09:45:35.129Z,23.58
2023-09-17T09:50:40.906Z,23.58
2023-09-17T09:55:43.846Z,23.62
2023-09-17T10:00:47.329Z,23.62
2023-09-17T10:05:51.822Z,23.67
2023-09-17T10:10:56.692Z,23.63
2023-09-17T10:15:59.793Z,23.72
2023-09-17T10:21:04.284Z,23.70
2023-09-17T10:26:07.988Z,23.68
2023-09-17T10:31:10.985Z,23.70
2023-09-17T10:36:15.591Z,23.73
2023-09-17T10:41:18.927Z,23.73
2023-09-17T10:46:23.888Z,23.72
2023-09-17T10:51:29.079Z,23.78
2023-09-17T10:56:32.294Z,23.74
2023-09-17T11:01:36.035Z,23.83
2023-09-17T11:06:40.607Z,23.82
2023-09-17T11:11:43.672Z,23.79
2023-09-17T11:16:49.682Z,23.81
2023-09-17T11:22:11.519Z,23.80
2023-09-17T11:27:14.581Z,23.88
2023-09-17T11:32:23.341Z,23.88
2023-09-17T11:37:27.670Z,23.84
2023-09-17T11:42:31.138Z,23.85
2023-09-17T11:47:34.173Z,23.88
2023-09-17T11:52:38.687Z,23.84
2023-09-17T11:57:43.183Z,23.86
2023-09-17T12:02:46.362Z,23.85
2023-09-17T12:07:55.346Z,23.87
2023-09-17T12:13:00.652Z,23.95
2023-09-17T12:18:03.833Z,23.90
2023-09-17T12:23:41.408Z,23.87
2023-09-17T12:28:46.472Z,23.92
2023-09-17T12:33:51.115Z,23.98
2023-09-17T12:38:55.492Z,23.95
2023-09-17T12:43:58.867Z,23.96
2023-09-17T12:49:02.360Z,24.02
2023-09-17T12:54:07.117Z,24.03
2023-09-17T12:59:10.034Z,24.03
2023-09-17T13:04:13.097Z,23.98
2023-09-17T13:09:17.734Z,23.98
2023-09-17T13:14:21.367Z,24.04
2023-09-17T13:19:24.450Z,24.06
2023-09-17T13:24:29.260Z,24.04
2023-09-17T13:29:37.156Z,24.07
2023-09-17T13:39:50.712Z,24.10
2023-09-17T13:44:56.774Z,24.11
2023-09-17T13:50:01.786Z,24.14
2023-09-17T13:55:07.155Z,24.14
2023-09-17T14:00:11.959Z,24.16
2023-09-17T14:05:14.952Z,24.18
2023-09-17T14:10:20.344Z,24.19
2023-09-17T14:15:23.328Z,24.16
2023-09-17T14:20:26.291Z,24.19
2023-09-17T14:25:31.693Z,24.21
2023-09-17T14:30:35.191Z,24.21
2023-09-17T14:35:39.406Z,24.21
2023-09-17T14:40:43.808Z,24.26
2023-09-17T14:45:46.758Z,24.26
2023-09-17T14:50:49.758Z,24.27
2023-09-17T14:55:54.910Z,24.29
2023-09-17T15:00:58.869Z,24.32
2023-09-17T15:06:04.036Z,24.32
2023-09-17T15:11:08.360Z,24.36
2023-09-17T15:16:12.133Z,24.37
2023-09-17T15:21:15.293Z,24.33
2023-09-17T15:26:19.637Z,24.37
2023-09-17T15:31:23.222Z,24.41
2023-09-17T15:36:27.285Z,24.43
2023-09-17T15:41:31.747Z,24.44
2023-09-17T15:46:35.786Z,24.45
2023-09-17T15:51:38.793Z,24.45
2023-09-17T15:56:44.042Z,24.49
2023-09-17T16:01:47.082Z,24.48
2023-09-17T16:06:50.040Z,24.48
2023-09-17T16:11:54.248Z,24.50
2023-09-17T16:16:57.146Z,24.45
2023-09-17T16:22:01.454Z,24.47
2023-09-17T16:27:08.435Z,24.42
2023-09-17T16:32:11.585Z,24.41
2023-09-17T16:37:14.498Z,24.57
2023-09-17T16:42:19.103Z,24.47
2023-09-17T16:47:22.697Z,24.49
2023-09-17T16:52:26.949Z,24.66
2023-09-17T16:57:31.123Z,24.50
2023-09-17T17:02:34.168Z,24.52
2023-09-17T17:07:37.148Z,24.51
2023-09-17T17:12:41.798Z,24.47
2023-09-17T17:17:44.741Z,24.49
2023-09-17T17:22:49.560Z,24.46
2023-09-17T17:27:55.100Z,24.48
2023-09-17T17:32:58.614Z,24.49
2023-09-17T17:38:04.235Z,24.48
2023-09-17T17:43:08.876Z,24.49
2023-09-17T17:48:13.544Z,24.43
2023-09-17T17:53:16.450Z,24.46
2023-09-17T17:58:20.744Z,24.49
2023-09-17T18:03:24.268Z,24.49
2023-09-17T18:08:27.633Z,24.46
2023-09-17T18:13:31.846Z,24.46
2023-09-17T18:18:34.748Z,24.46
2023-09-17T18:23:38.616Z,24.48
2023-09-17T18:28:42.979Z,24.47
2023-09-17T18:33:45.888Z,24.44
2023-09-17T18:38:49.911Z,24.45
2023-09-17T18:43:54.428Z,24.43
2023-09-17T18:48:57.539Z,24.44
2023-09-17T18:54:00.393Z,24.42
2023-09-17T18:59:04.985Z,24.41
2023-09-17T19:04:08.999Z,24.43
2023-09-17T19:09:11.865Z,24.41
2023-09-17T19:14:16.077Z,24.40
2023-09-17T19:19:19.387Z,24.43
2023-09-17T19:24:22.297Z,24.37
2023-09-17T19:29:27.283Z,24.39
2023-09-17T19:34:31.045Z,24.40
2023-09-17T19:39:33.895Z,24.36
2023-09-17T19:44:38.544Z,24.34
2023-09-17T19:49:42.077Z,24.37
2023-09-17T19:54:45.761Z,24.40
2023-09-17T19:59:49.974Z,24.34
2023-09-17T20:04:52.873Z,24.34
2023-09-17T20:09:56.183Z,24.35
2023-09-17T20:15:00.436Z,24.33
2023-09-17T20:20:03.618Z,24.32
2023-09-17T20:25:07.891Z,24.31
2023-09-17T20:30:13.816Z,24.31
2023-09-17T20:35:16.969Z,24.29
2023-09-17T20:40:20.040Z,24.26
2023-09-17T20:45:24.314Z,24.28
2023-09-17T20:50:27.364Z,24.31
2023-09-17T20:55:30.294Z,24.26
2023-09-17T21:00:34.536Z,24.27
2023-09-17T21:05:37.395Z,24.29
2023-09-17T21:10:41.035Z,24.28
2023-09-17T21:15:45.263Z,24.29
2023-09-17T21:20:48.188Z,24.27
2023-09-17T21:25:51.132Z,24.28
2023-09-17T21:30:56.620Z,24.25
2023-09-17T21:35:59.542Z,24.24
2023-09-17T21:41:02.471Z,24.26
2023-09-17T21:46:06.745Z,24.24
2023-09-17T21:51:09.915Z,24.25
2023-09-17T21:56:13.301Z,24.24
2023-09-17T22:01:19.386Z,24.22
2023-09-17T22:06:22.243Z,24.20
2023-09-17T22:11:25.199Z,24.23
2023-09-17T22:16:29.653Z,24.22
2023-09-17T22:21:33.959Z,24.20
2023-09-17T22:26:36.842Z,24.20
2023-09-17T22:31:41.207Z,24.20
2023-09-17T22:36:44.143Z,24.21
2023-09-17T22:41:46.982Z,24.18
2023-09-17T22:46:51.352Z,24.18
2023-09-17T22:51:56.861Z,24.16
2023-09-17T22:57:00.413Z,24.17
2023-09-17T23:02:05.265Z,24.14
2023-09-17T23:07:12.078Z,24.14
2023-09-17T23:12:16.188Z,24.13
2023-09-17T23:17:20.487Z,24.13
2023-09-17T23:22:23.403Z,24.10
2023-09-17T23:27:26.259Z,24.12
2023-09-17T23:32:31.910Z,24.11
2023-09-17T23:37:34.953Z,24.08
2023-09-17T23:42:37.845Z,24.09
2023-09-17T23:47:43.001Z,24.06
2023-09-17T23:52:46.446Z,24.05
2023-09-17T23:57:49.480Z,24.04
